Time;durP1;ratioP1;P1;durP2;ratioP2;P2;SDS_P1;SDS_P2;PMS_P1;PMS_P2;Temp;Humidity;BMP_temperature;BMP_pressure;BME280_temperature;BME280_humidity;BME280_pressure;Samples;Min_cycle;Max_cycle;Signal;HPM_P1;HPM_P2
2022/10/06 03:02:13;;;;;;;;;;;12.50;99.90;;;;;;5372641;23;19925;-69
2022/10/06 03:04:40;;;;;;;;;;;12.40;99.90;;;;;;5010068;28;19953;-73
2022/10/06 03:07:07;;;;;;;;;;;12.40;99.90;;;;;;5010060;28;19925;-72
2022/10/06 03:09:37;;;;;;;;;;;12.30;99.90;;;;;;5010164;28;19991;-72
2022/10/06 03:12:03;;;;;;;;;;;12.30;99.90;;;;;;4998675;28;20454;-73
2022/10/06 03:14:37;;;;;;;;;;;12.20;99.90;;;;;;4990910;28;19930;-73
2022/10/06 03:17:06;;;;;;;;;;;12.30;99.90;;;;;;4990958;28;19932;-72
2022/10/06 03:19:34;;;;;;;;;;;12.20;99.90;;;;;;4990222;28;19925;-72
2022/10/06 03:22:00;;;;;;;;;;;12.20;99.90;;;;;;4989649;28;20016;-73
2022/10/06 03:24:42;;;;;;;;;;;12.20;99.90;;;;;;4991383;28;19930;-72
2022/10/06 03:27:09;;;;;;;;;;;12.20;99.90;;;;;;4990147;28;20339;-72
2022/10/06 03:29:35;;;;;;;;;;;12.30;99.90;;;;;;4990455;28;19929;-71
2022/10/06 03:32:03;;;;;;;;;;;12.20;99.90;;;;;;4990313;28;19936;-72
2022/10/06 03:34:30;;;;;;;;;;;12.20;99.90;;;;;;4990583;28;19980;-73
2022/10/06 03:37:00;;;;;;;;;;;12.10;99.90;;;;;;4990702;28;19925;-72
2022/10/06 03:39:28;;;;;;;;;;;12.10;99.90;;;;;;4990761;28;19964;-72
2022/10/06 03:41:54;;;;;;;;;;;12.10;99.90;;;;;;4990538;28;19925;-73
2022/10/06 03:44:21;;;;;;;;;;;12.10;99.90;;;;;;4991718;28;19926;-72
2022/10/06 03:46:48;;;;;;;;;;;12.10;99.90;;;;;;4990484;28;20308;-72
2022/10/06 03:49:15;;;;;;;;;;;12.00;99.90;;;;;;4990217;28;19929;-72
2022/10/06 03:51:42;;;;;;;;;;;12.00;99.90;;;;;;4990329;28;20456;-73
2022/10/06 03:54:15;;;;;;;;;;;11.90;99.90;;;;;;4990664;28;19980;-73
2022/10/06 03:56:44;;;;;;;;;;;11.90;99.90;;;;;;4990632;28;19948;-72
2022/10/06 03:59:16;;;;;;;;;;;11.80;99.90;;;;;;4990224;28;19930;-72
2022/10/06 04:01:44;;;;;;;;;;;11.80;99.90;;;;;;4990530;28;20300;-73
2022/10/06 04:04:14;;;;;;;;;;;11.80;99.90;;;;;;4989955;28;19965;-73
2022/10/06 04:06:43;;;;;;;;;;;11.80;99.90;;;;;;4990240;28;19933;-72
2022/10/06 04:09:14;;;;;;;;;;;11.70;99.90;;;;;;4989912;28;19926;-73
2022/10/06 04:11:43;;;;;;;;;;;11.80;99.90;;;;;;4990449;28;19930;-72
2022/10/06 04:14:12;;;;;;;;;;;11.70;99.90;;;;;;4990142;28;19930;-72
2022/10/06 04:16:40;;;;;;;;;;;11.70;99.90;;;;;;4990233;28;19926;-72
2022/10/06 04:19:09;;;;;;;;;;;11.60;99.90;;;;;;4991177;28;20403;-73
2022/10/06 04:21:40;;;;;;;;;;;11.60;99.90;;;;;;4990869;28;19926;-72
2022/10/06 04:24:10;;;;;;;;;;;11.60;99.90;;;;;;4991452;28;19980;-72
2022/10/06 04:26:40;;;;;;;;;;;11.60;99.90;;;;;;4990985;28;20309;-71
2022/10/06 04:29:08;;;;;;;;;;;11.60;99.90;;;;;;4991031;28;20492;-71
2022/10/06 04:31:37;;;;;;;;;;;11.50;99.90;;;;;;4991100;28;19926;-70
2022/10/06 04:34:06;;;;;;;;;;;11.50;99.90;;;;;;4990765;28;19926;-73
2022/10/06 04:36:35;;;;;;;;;;;11.40;99.90;;;;;;4990982;28;19926;-71
2022/10/06 04:39:03;;;;;;;;;;;11.30;99.90;;;;;;4991732;28;19926;-72
2022/10/06 04:41:32;;;;;;;;;;;11.30;99.90;;;;;;4994257;28;20033;-72
2022/10/06 04:43:59;;;;;;;;;;;11.30;99.90;;;;;;4994133;28;19933;-72
2022/10/06 04:46:27;;;;;;;;;;;11.20;99.90;;;;;;4994183;28;20020;-71
2022/10/06 04:48:55;;;;;;;;;;;11.20;99.90;;;;;;4994110;28;19925;-72
2022/10/06 04:51:26;;;;;;;;;;;11.10;99.90;;;;;;4994228;28;19933;-72
2022/10/06 04:53:53;;;;;;;;;;;11.00;99.90;;;;;;4994249;28;19932;-71
2022/10/06 04:56:22;;;;;;;;;;;11.00;99.90;;;;;;4994258;28;19937;-71
2022/10/06 04:58:51;;;;;;;;;;;11.00;99.90;;;;;;4994384;28;19934;-69
2022/10/06 05:01:19;;;;;;;;;;;11.00;99.90;;;;;;4992811;28;19933;-71
2022/10/06 05:03:49;;;;;;;;;;;10.90;99.90;;;;;;4994579;28;19925;-71
2022/10/06 05:06:17;;;;;;;;;;;10.90;99.90;;;;;;5013624;28;19926;-73
2022/10/06 05:08:47;;;;;;;;;;;10.80;99.90;;;;;;5013503;28;19936;-70
2022/10/06 05:11:14;;;;;;;;;;;10.80;99.90;;;;;;5013649;28;19930;-71
2022/10/06 05:13:42;;;;;;;;;;;10.80;99.90;;;;;;5013556;28;20423;-69
2022/10/06 05:16:12;;;;;;;;;;;10.80;99.90;;;;;;5013628;28;19976;-70
2022/10/06 05:18:39;;;;;;;;;;;10.70;99.90;;;;;;5013622;28;19925;-71
2022/10/06 05:21:10;;;;;;;;;;;10.60;99.90;;;;;;4995243;28;20016;-71
2022/10/06 05:23:38;;;;;;;;;;;10.60;99.90;;;;;;4993444;28;19925;-69
2022/10/06 05:26:06;;;;;;;;;;;10.50;99.90;;;;;;4993996;28;20296;-66
2022/10/06 05:28:33;;;;;;;;;;;10.40;99.90;;;;;;4993648;28;19926;-66
2022/10/06 05:31:02;;;;;;;;;;;10.50;99.90;;;;;;4993566;28;19926;-68
2022/10/06 05:33:31;;;;;;;;;;;10.40;99.90;;;;;;4993370;28;20008;-68
2022/10/06 05:35:58;;;;;;;;;;;10.40;99.90;;;;;;4993500;28;20024;-69
2022/10/06 05:38:27;;;;;;;;;;;10.40;99.90;;;;;;4993421;28;19926;-69
2022/10/06 05:41:00;;;;;;;;;;;10.40;99.90;;;;;;4993184;28;19926;-68
2022/10/06 05:43:27;;;;;;;;;;;10.40;99.90;;;;;;4998085;23;19931;-69
2022/10/06 05:45:55;;;;;;;;;;;10.40;99.90;;;;;;4969906;28;20024;-68
2022/10/06 05:48:21;;;;;;;;;;;10.40;99.90;;;;;;4972403;28;19934;-68
2022/10/06 05:50:48;;;;;;;;;;;10.50;99.90;;;;;;4969108;28;19927;-68
2022/10/06 05:53:15;;;;;;;;;;;10.50;99.90;;;;;;4963034;28;19930;-67
2022/10/06 05:55:43;;;;;;;;;;;10.50;99.90;;;;;;4958484;28;19933;-68
2022/10/06 05:58:10;;;;;;;;;;;10.50;99.90;;;;;;4942754;29;19934;-68
2022/10/06 06:00:37;;;;;;;;;;;10.50;99.90;;;;;;4954103;29;19990;-68
2022/10/06 06:03:07;;;;;;;;;;;10.60;99.90;;;;;;4954098;29;19926;-68
2022/10/06 06:05:34;;;;;;;;;;;10.60;99.90;;;;;;4954125;29;19978;-67
2022/10/06 06:08:01;;;;;;;;;;;10.60;99.90;;;;;;4953171;29;19927;-66
2022/10/06 06:10:28;;;;;;;;;;;10.60;99.90;;;;;;4951202;29;20376;-68
2022/10/06 06:12:56;;;;;;;;;;;10.60;99.90;;;;;;4951130;29;19933;-69
2022/10/06 06:18:17;;;;;;;;;;;10.60;99.90;;;;;;4956473;28;19923;-69
2022/10/06 06:20:44;;;;;;;;;;;10.60;99.90;;;;;;4956619;28;19995;-72
2022/10/06 06:23:11;;;;;;;;;;;10.60;99.90;;;;;;4950266;29;19926;-70
2022/10/06 06:25:38;;;;;;;;;;;10.70;99.90;;;;;;4950893;29;19927;-71
2022/10/06 06:28:06;;;;;;;;;;;10.70;99.90;;;;;;4951024;29;19927;-69
2022/10/06 06:30:33;;;;;;;;;;;10.70;99.90;;;;;;4952398;29;20374;-69
2022/10/06 06:33:00;;;;;;;;;;;10.70;99.90;;;;;;4952953;29;19962;-69
2022/10/06 06:35:28;;;;;;;;;;;10.80;99.90;;;;;;4952481;29;19927;-69
2022/10/06 06:37:56;;;;;;;;;;;10.80;99.90;;;;;;4949887;29;20357;-69
2022/10/06 06:40:23;;;;;;;;;;;10.90;99.90;;;;;;4952268;29;19926;-69
2022/10/06 06:42:50;;;;;;;;;;;10.90;99.90;;;;;;4951727;29;19927;-69
2022/10/06 06:45:19;;;;;;;;;;;10.90;99.90;;;;;;4953834;29;19926;-69
2022/10/06 06:47:59;;;;;;;;;;;10.90;99.90;;;;;;4950516;29;20321;-70
2022/10/06 06:50:26;;;;;;;;;;;11.00;99.90;;;;;;4952216;29;19977;-69
2022/10/06 06:52:54;;;;;;;;;;;11.10;99.90;;;;;;4951837;29;19927;-70
2022/10/06 06:55:21;;;;;;;;;;;11.20;99.90;;;;;;4952145;29;20025;-69
2022/10/06 06:57:49;;;;;;;;;;;11.20;99.90;;;;;;4951785;29;20298;-70
2022/10/06 07:00:16;;;;;;;;;;;11.30;99.90;;;;;;4951216;29;19926;-70
2022/10/06 07:02:59;;;;;;;;;;;11.30;99.90;;;;;;4951452;28;19931;-70
2022/10/06 07:05:26;;;;;;;;;;;11.40;99.90;;;;;;4948752;29;19926;-69
2022/10/06 07:07:53;;;;;;;;;;;11.50;99.90;;;;;;4955956;28;19933;-68
2022/10/06 07:10:20;;;;;;;;;;;11.50;99.90;;;;;;4962894;28;19980;-70
2022/10/06 07:12:47;;;;;;;;;;;11.60;99.90;;;;;;4954177;28;19927;-70
2022/10/06 07:26:20;;;;;;;;;;;12.00;99.90;;;;;;4957438;28;20009;-69
2022/10/06 07:28:48;;;;;;;;;;;12.00;99.90;;;;;;4971347;28;20463;-69
2022/10/06 07:31:16;;;;;;;;;;;12.10;99.90;;;;;;4967975;28;20349;-69
2022/10/06 07:33:44;;;;;;;;;;;12.10;99.90;;;;;;4965783;28;19926;-68
2022/10/06 07:36:11;;;;;;;;;;;12.20;99.90;;;;;;4948290;28;19926;-69
2022/10/06 07:38:40;;;;;;;;;;;12.20;99.90;;;;;;4956573;28;20313;-69
2022/10/06 07:41:07;;;;;;;;;;;12.20;99.90;;;;;;4948661;28;19926;-68
2022/10/06 07:43:34;;;;;;;;;;;12.30;99.90;;;;;;4951115;29;19934;-69
2022/10/06 07:46:01;;;;;;;;;;;12.40;99.90;;;;;;4951793;29;19927;-69
2022/10/06 07:48:38;;;;;;;;;;;12.40;99.90;;;;;;4951641;29;20025;-68
2022/10/06 07:51:13;;;;;;;;;;;12.50;99.90;;;;;;4951595;29;19966;-69
2022/10/06 07:53:41;;;;;;;;;;;12.50;99.90;;;;;;4951322;29;20032;-69
2022/10/06 07:56:23;;;;;;;;;;;12.60;99.90;;;;;;4952532;29;19978;-69
2022/10/06 07:58:54;;;;;;;;;;;12.60;99.90;;;;;;4952154;29;19927;-68
2022/10/06 08:01:21;;;;;;;;;;;12.70;99.90;;;;;;4952009;29;20021;-69
2022/10/06 08:03:49;;;;;;;;;;;12.80;99.90;;;;;;4951270;29;19945;-69
2022/10/06 08:06:18;;;;;;;;;;;12.90;99.90;;;;;;4951680;29;20342;-69
2022/10/06 08:08:46;;;;;;;;;;;12.90;99.90;;;;;;4951835;29;20394;-69
2022/10/06 08:11:13;;;;;;;;;;;13.00;99.90;;;;;;4951808;29;19930;-69
2022/10/06 08:13:41;;;;;;;;;;;13.00;99.90;;;;;;4952040;28;19926;-69
2022/10/06 08:16:09;;;;;;;;;;;13.10;99.90;;;;;;4959099;28;19937;-69
2022/10/06 08:18:36;;;;;;;;;;;13.10;99.90;;;;;;4959158;28;19927;-68
2022/10/06 08:21:08;;;;;;;;;;;13.20;99.90;;;;;;4958011;28;19937;-68
2022/10/06 08:23:39;;;;;;;;;;;13.20;99.90;;;;;;4957202;28;19927;-74
2022/10/06 08:26:06;;;;;;;;;;;13.30;99.90;;;;;;4964213;28;19933;-73
2022/10/06 08:28:34;;;;;;;;;;;13.30;99.90;;;;;;4958610;28;19927;-74
2022/10/06 08:31:03;;;;;;;;;;;13.40;99.90;;;;;;4952944;28;19931;-68
2022/10/06 08:33:30;;;;;;;;;;;13.40;99.90;;;;;;4961994;28;20341;-68
2022/10/06 08:36:01;;;;;;;;;;;13.50;99.90;;;;;;4955872;28;19927;-68
2022/10/06 08:38:28;;;;;;;;;;;13.40;99.90;;;;;;4969254;28;19931;-69
2022/10/06 08:40:56;;;;;;;;;;;13.50;99.90;;;;;;4955306;29;19933;-68
2022/10/06 08:43:23;;;;;;;;;;;13.50;99.90;;;;;;4955296;29;19926;-68
2022/10/06 08:45:52;;;;;;;;;;;13.50;99.90;;;;;;4955856;29;19926;-68
2022/10/06 08:48:23;;;;;;;;;;;13.60;99.90;;;;;;4955844;29;19942;-68
2022/10/06 08:50:53;;;;;;;;;;;13.70;99.90;;;;;;4955576;29;19927;-68
2022/10/06 08:53:25;;;;;;;;;;;13.80;99.90;;;;;;4955655;29;20382;-68
2022/10/06 08:55:53;;;;;;;;;;;13.90;99.90;;;;;;4955897;29;19933;-68
2022/10/06 08:58:27;;;;;;;;;;;13.90;99.90;;;;;;4955341;29;19926;-68
2022/10/06 09:00:55;;;;;;;;;;;14.00;99.90;;;;;;4955222;29;19930;-68
2022/10/06 09:03:25;;;;;;;;;;;14.10;99.90;;;;;;4955205;29;19973;-67
2022/10/06 09:05:53;;;;;;;;;;;14.20;99.90;;;;;;4955463;29;19986;-70
2022/10/06 09:08:25;;;;;;;;;;;14.30;99.90;;;;;;4955238;29;19927;-68
2022/10/06 09:10:59;;;;;;;;;;;14.40;99.90;;;;;;4955454;29;19927;-68
2022/10/06 09:13:30;;;;;;;;;;;14.30;99.90;;;;;;4954983;29;19926;-68
2022/10/06 09:16:00;;;;;;;;;;;14.40;99.90;;;;;;4955304;29;19926;-68
2022/10/06 09:18:31;;;;;;;;;;;14.40;99.90;;;;;;4955369;29;20358;-67
2022/10/06 09:21:00;;;;;;;;;;;14.50;99.90;;;;;;4955065;29;19926;-68
2022/10/06 09:26:22;;;;;;;;;;;14.50;99.90;;;;;;4916295;29;19933;-67
2022/10/06 09:28:52;;;;;;;;;;;14.50;99.90;;;;;;4953880;28;19934;-66
2022/10/06 09:31:21;;;;;;;;;;;14.50;99.90;;;;;;4955632;28;19985;-69
2022/10/06 09:33:48;;;;;;;;;;;14.70;99.90;;;;;;4956980;28;19984;-68
2022/10/06 09:36:14;;;;;;;;;;;14.70;99.90;;;;;;4960055;28;20266;-69
2022/10/06 09:38:46;;;;;;;;;;;14.70;99.90;;;;;;4955124;29;19927;-69
2022/10/06 09:41:13;;;;;;;;;;;14.70;99.90;;;;;;4965834;28;20423;-69
2022/10/06 09:43:41;;;;;;;;;;;14.70;99.90;;;;;;4955342;28;19927;-68
2022/10/06 09:46:23;;;;;;;;;;;14.90;99.90;;;;;;4954275;29;19933;-68
2022/10/06 09:49:06;;;;;;;;;;;15.00;99.90;;;;;;4954149;29;19981;-67
2022/10/06 09:51:36;;;;;;;;;;;15.10;99.90;;;;;;4953607;29;19934;-68
2022/10/06 09:54:09;;;;;;;;;;;15.30;99.90;;;;;;4940067;29;20405;-68
2022/10/06 09:56:39;;;;;;;;;;;15.50;99.90;;;;;;4954016;29;19934;-66
2022/10/06 09:59:16;;;;;;;;;;;15.70;99.90;;;;;;4953714;29;19933;-66
2022/10/06 10:01:50;;;;;;;;;;;15.70;99.90;;;;;;4954045;28;19927;-65
2022/10/06 10:04:20;;;;;;;;;;;15.60;99.90;;;;;;4947971;29;19930;-68
2022/10/06 10:06:47;;;;;;;;;;;15.60;99.90;;;;;;4935875;29;19934;-68
2022/10/06 10:09:24;;;;;;;;;;;15.60;99.90;;;;;;4948271;29;19938;-67
2022/10/06 10:14:45;;;;;;;;;;;16.00;99.90;;;;;;4952464;29;19926;-67
2022/10/06 10:17:17;;;;;;;;;;;16.00;99.90;;;;;;4954232;29;19927;-66
2022/10/06 10:19:51;;;;;;;;;;;16.10;99.90;;;;;;4952911;29;19934;-68
2022/10/06 10:22:21;;;;;;;;;;;16.30;99.90;;;;;;4954023;28;19935;-68
2022/10/06 10:24:54;;;;;;;;;;;16.50;99.90;;;;;;4954114;29;19927;-68
2022/10/06 10:27:23;;;;;;;;;;;16.60;99.90;;;;;;4953804;29;19974;-69
2022/10/06 10:30:00;;;;;;;;;;;17.40;99.90;;;;;;4953016;29;19926;-69
2022/10/06 10:32:38;;;;;;;;;;;22.20;99.90;;;;;;4953752;28;20023;-68
2022/10/06 10:35:12;;;;;;;;;;;25.10;99.90;;;;;;4952955;29;19926;-69
2022/10/06 10:37:41;;;;;;;;;;;25.90;99.90;;;;;;4953557;28;19926;-69
2022/10/06 10:40:12;;;;;;;;;;;26.50;99.90;;;;;;4953444;29;19933;-69
2022/10/06 10:42:40;;;;;;;;;;;25.80;99.90;;;;;;4953308;29;19934;-69
2022/10/06 10:45:13;;;;;;;;;;;27.30;99.90;;;;;;4953671;29;19933;-70
2022/10/06 10:47:44;;;;;;;;;;;29.00;99.90;;;;;;4953445;29;19933;-69
2022/10/06 10:50:16;;;;;;;;;;;30.30;99.90;;;;;;4953348;29;19927;-69
2022/10/06 10:52:43;;;;;;;;;;;29.40;99.90;;;;;;4953170;29;19958;-70
2022/10/06 10:55:17;;;;;;;;;;;29.50;99.90;;;;;;4953372;29;20341;-69
2022/10/06 10:57:44;;;;;;;;;;;28.80;99.90;;;;;;4953207;29;19934;-69
2022/10/06 11:00:16;;;;;;;;;;;27.60;99.90;;;;;;4952623;28;19930;-68
2022/10/06 11:02:44;;;;;;;;;;;28.20;99.90;;;;;;4957145;28;19934;-68
2022/10/06 11:05:14;;;;;;;;;;;29.60;99.90;;;;;;4949784;28;20378;-68
2022/10/06 11:07:46;;;;;;;;;;;29.50;99.90;;;;;;4951614;29;19958;-69
2022/10/06 11:10:16;;;;;;;;;;;29.00;99.90;;;;;;4951754;29;19935;-69
2022/10/06 11:12:53;;;;;;;;;;;28.00;99.90;;;;;;4951392;28;19927;-70
2022/10/06 11:15:24;;;;;;;;;;;27.70;99.90;;;;;;4949457;29;19937;-70
2022/10/06 11:17:56;;;;;;;;;;;27.40;99.90;;;;;;4946292;29;19927;-69
2022/10/06 11:20:38;;;;;;;;;;;27.80;99.90;;;;;;4967339;28;20398;-69
2022/10/06 11:23:24;;;;;;;;;;;28.30;99.90;;;;;;4947529;29;19927;-69
2022/10/06 11:25:55;;;;;;;;;;;29.30;99.90;;;;;;4951758;29;19930;-69
2022/10/06 11:28:24;;;;;;;;;;;29.90;99.90;;;;;;4951322;29;19935;-69
2022/10/06 11:30:55;;;;;;;;;;;30.50;99.90;;;;;;4951135;29;19934;-69
2022/10/06 11:33:27;;;;;;;;;;;30.70;99.90;;;;;;4946768;29;19942;-69
2022/10/06 11:35:54;;;;;;;;;;;29.90;99.90;;;;;;4949707;28;19926;-69
2022/10/06 11:38:24;;;;;;;;;;;30.00;99.90;;;;;;4956606;28;19962;-69
2022/10/06 11:41:01;;;;;;;;;;;30.40;99.90;;;;;;4951176;29;19927;-69
2022/10/06 11:43:32;;;;;;;;;;;29.70;99.90;;;;;;4951261;28;19926;-69
2022/10/06 11:46:03;;;;;;;;;;;29.20;99.90;;;;;;4950608;29;19927;-70
2022/10/06 11:48:32;;;;;;;;;;;30.00;99.90;;;;;;4951871;28;19989;-70
2022/10/06 11:51:14;;;;;;;;;;;29.80;99.90;;;;;;4956229;28;19926;-68
2022/10/06 11:53:40;;;;;;;;;;;27.30;99.90;;;;;;4955444;28;20372;-70
2022/10/06 11:56:37;;;;;;;;;;;28.30;99.90;;;;;;4955668;28;19933;-70
2022/10/06 11:59:11;;;;;;;;;;;29.30;99.90;;;;;;4885172;29;19928;-70
2022/10/06 12:01:51;;;;;;;;;;;28.70;99.90;;;;;;4943969;28;19931;-70
2022/10/06 12:04:19;;;;;;;;;;;28.80;99.90;;;;;;4936106;29;19926;-70
2022/10/06 12:06:54;;;;;;;;;;;29.00;99.90;;;;;;4940753;29;20353;-70
2022/10/06 12:09:31;;;;;;;;;;;30.10;99.90;;;;;;4955226;29;19931;-71
2022/10/06 12:11:59;;;;;;;;;;;30.40;99.90;;;;;;4940782;29;19927;-71
2022/10/06 12:14:30;;;;;;;;;;;30.20;99.90;;;;;;4935829;29;19934;-71
2022/10/06 12:16:59;;;;;;;;;;;29.10;99.90;;;;;;4936498;29;19997;-70
2022/10/06 12:19:30;;;;;;;;;;;28.00;99.90;;;;;;4936300;29;19934;-71
2022/10/06 12:22:00;;;;;;;;;;;27.80;99.90;;;;;;4936491;29;19931;-71
2022/10/06 12:24:31;;;;;;;;;;;28.40;99.90;;;;;;4935984;29;20026;-71
2022/10/06 12:27:06;;;;;;;;;;;28.80;99.90;;;;;;4936574;29;19927;-71
2022/10/06 12:29:40;;;;;;;;;;;30.40;99.90;;;;;;4940604;29;19927;-72
2022/10/06 12:32:13;;;;;;;;;;;29.90;99.90;;;;;;4944595;29;19972;-71
2022/10/06 12:34:42;;;;;;;;;;;30.20;99.90;;;;;;4954611;29;19941;-73
2022/10/06 12:37:27;;;;;;;;;;;30.50;99.40;;;;;;4954679;29;19931;-72
2022/10/06 12:40:24;;;;;;;;;;;30.00;98.70;;;;;;4954333;29;19933;-72
2022/10/06 12:42:53;;;;;;;;;;;30.50;99.50;;;;;;4952273;29;19926;-71
2022/10/06 12:45:22;;;;;;;;;;;31.00;99.60;;;;;;4954757;29;19927;-71
2022/10/06 12:47:49;;;;;;;;;;;30.40;99.50;;;;;;4956799;28;19930;-71
2022/10/06 12:50:19;;;;;;;;;;;29.30;99.60;;;;;;4968766;28;19926;-70
2022/10/06 12:52:48;;;;;;;;;;;29.70;99.70;;;;;;4960663;28;19930;-70
2022/10/06 12:55:27;;;;;;;;;;;30.00;99.10;;;;;;4960082;28;19933;-71
2022/10/06 12:57:54;;;;;;;;;;;28.90;99.60;;;;;;4969898;28;19926;-70
2022/10/06 13:00:29;;;;;;;;;;;26.90;99.50;;;;;;4973308;28;19969;-71
2022/10/06 13:02:57;;;;;;;;;;;26.30;99.40;;;;;;4963731;28;19926;-71
2022/10/06 13:05:25;;;;;;;;;;;27.40;99.30;;;;;;4970046;28;20005;-72
2022/10/06 13:07:56;;;;;;;;;;;27.90;99.30;;;;;;4973734;28;19930;-71
2022/10/06 13:10:22;;;;;;;;;;;26.80;99.60;;;;;;4973647;28;19965;-70
2022/10/06 13:12:51;;;;;;;;;;;27.00;98.50;;;;;;4973436;28;19933;-71
2022/10/06 13:15:19;;;;;;;;;;;25.20;98.80;;;;;;4963155;28;20397;-69
2022/10/06 13:17:48;;;;;;;;;;;25.00;99.90;;;;;;4959126;28;19931;-69
2022/10/06 13:20:30;;;;;;;;;;;25.70;99.90;;;;;;4953721;29;19927;-68
2022/10/06 13:22:58;;;;;;;;;;;25.90;99.90;;;;;;4954059;29;19930;-69
2022/10/06 13:25:25;;;;;;;;;;;26.20;99.90;;;;;;4954145;29;19927;-70
2022/10/06 13:27:52;;;;;;;;;;;26.00;99.70;;;;;;4954191;29;20381;-70
2022/10/06 13:30:20;;;;;;;;;;;25.70;99.00;;;;;;4953431;29;19927;-71
2022/10/06 13:32:47;;;;;;;;;;;25.40;98.30;;;;;;4953323;29;19927;-70
2022/10/06 13:35:22;;;;;;;;;;;26.10;99.40;;;;;;4953854;29;19926;-67
2022/10/06 13:37:50;;;;;;;;;;;25.10;99.40;;;;;;4953495;28;20353;-68
2022/10/06 13:40:27;;;;;;;;;;;25.20;99.70;;;;;;4962317;28;19930;-69
2022/10/06 13:42:55;;;;;;;;;;;25.60;99.90;;;;;;4958412;28;19953;-70
2022/10/06 13:45:22;;;;;;;;;;;25.10;99.60;;;;;;4953211;28;19930;-71
2022/10/06 13:48:01;;;;;;;;;;;25.30;99.90;;;;;;4960490;28;19926;-70
2022/10/06 13:50:28;;;;;;;;;;;26.00;99.90;;;;;;4952993;28;20365;-71
2022/10/06 13:52:56;;;;;;;;;;;26.60;99.90;;;;;;4953013;29;19931;-70
2022/10/06 13:55:24;;;;;;;;;;;25.90;99.40;;;;;;4953543;29;19930;-70
2022/10/06 13:57:52;;;;;;;;;;;25.10;99.50;;;;;;4949428;29;19927;-69
2022/10/06 14:00:21;;;;;;;;;;;25.90;99.30;;;;;;4951999;29;19927;-69
2022/10/06 14:02:49;;;;;;;;;;;26.70;98.90;;;;;;4952099;29;20290;-70
2022/10/06 14:05:20;;;;;;;;;;;26.50;99.10;;;;;;4953083;29;20028;-70
2022/10/06 14:07:48;;;;;;;;;;;25.80;98.20;;;;;;4952778;29;19982;-70
2022/10/06 14:10:17;;;;;;;;;;;25.40;98.70;;;;;;4951204;29;20390;-70
2022/10/06 14:12:44;;;;;;;;;;;25.60;99.30;;;;;;4932653;29;19927;-70
2022/10/06 14:15:16;;;;;;;;;;;25.90;98.70;;;;;;4934231;29;19974;-69
2022/10/06 14:17:43;;;;;;;;;;;25.00;97.90;;;;;;4935289;29;19974;-70
2022/10/06 14:20:44;;;;;;;;;;;25.00;97.90;;;;;;4934643;29;19981;-69
2022/10/06 14:23:29;;;;;;;;;;;25.20;98.40;;;;;;4856007;29;19928;-70
2022/10/06 14:25:58;;;;;;;;;;;24.20;98.00;;;;;;4881699;29;19928;-69
2022/10/06 14:28:24;;;;;;;;;;;24.60;98.40;;;;;;4907391;29;19977;-70
2022/10/06 14:30:52;;;;;;;;;;;24.20;98.30;;;;;;4952668;29;19926;-71
2022/10/06 14:33:19;;;;;;;;;;;24.90;98.60;;;;;;4952550;29;19926;-70
2022/10/06 14:35:46;;;;;;;;;;;25.30;98.80;;;;;;4952600;29;19931;-70
2022/10/06 14:38:13;;;;;;;;;;;26.10;98.60;;;;;;4952321;29;19935;-68
2022/10/06 14:40:40;;;;;;;;;;;26.30;98.20;;;;;;4953105;29;20309;-69
2022/10/06 14:43:09;;;;;;;;;;;25.70;98.60;;;;;;4952539;29;19934;-69
2022/10/06 14:45:39;;;;;;;;;;;25.40;98.90;;;;;;4952360;29;19926;-69
2022/10/06 14:48:06;;;;;;;;;;;26.20;98.90;;;;;;4952749;29;19934;-69
2022/10/06 14:50:33;;;;;;;;;;;26.40;98.90;;;;;;4952413;29;19930;-70
2022/10/06 14:53:00;;;;;;;;;;;26.70;98.90;;;;;;4952519;29;19930;-70
2022/10/06 14:55:29;;;;;;;;;;;27.10;98.70;;;;;;4952867;29;19927;-70
2022/10/06 14:57:56;;;;;;;;;;;26.60;99.00;;;;;;4952288;29;19933;-69
2022/10/06 15:00:27;;;;;;;;;;;25.90;98.60;;;;;;4952443;29;19930;-70
2022/10/06 15:02:54;;;;;;;;;;;25.80;98.90;;;;;;4952436;29;19927;-68
2022/10/06 15:05:21;;;;;;;;;;;24.70;99.40;;;;;;4952630;29;19934;-70
2022/10/06 15:10:50;;;;;;;;;;;25.10;99.70;;;;;;4924587;29;19923;-70
2022/10/06 15:13:17;;;;;;;;;;;25.40;99.40;;;;;;4934344;29;19962;-69
2022/10/06 15:15:46;;;;;;;;;;;25.40;99.80;;;;;;4952006;29;20024;-69
2022/10/06 15:18:14;;;;;;;;;;;25.20;99.80;;;;;;4952066;29;19926;-69
2022/10/06 15:20:41;;;;;;;;;;;25.50;99.80;;;;;;4951839;29;19926;-69
2022/10/06 15:23:08;;;;;;;;;;;25.80;99.70;;;;;;4951675;28;19966;-69
2022/10/06 15:31:05;;;;;;;;;;;26.40;99.70;;;;;;4951462;29;19934;-69
2022/10/06 15:33:32;;;;;;;;;;;25.40;99.80;;;;;;4951040;29;19977;-69
2022/10/06 15:36:13;;;;;;;;;;;25.50;99.90;;;;;;4951856;29;19926;-70
2022/10/06 15:38:40;;;;;;;;;;;25.70;99.90;;;;;;4951880;29;19934;-70
2022/10/06 15:41:07;;;;;;;;;;;25.50;99.90;;;;;;4951939;29;19926;-69
2022/10/06 15:46:16;;;;;;;;;;;25.30;99.90;;;;;;4950896;29;19926;-69
2022/10/06 15:48:43;;;;;;;;;;;25.50;99.90;;;;;;4951882;29;19933;-69
2022/10/06 15:51:10;;;;;;;;;;;25.20;99.90;;;;;;4951317;29;19926;-70
2022/10/06 15:53:36;;;;;;;;;;;24.60;99.90;;;;;;4951315;29;19926;-69
2022/10/06 15:56:03;;;;;;;;;;;24.10;99.90;;;;;;4951822;29;20429;-68
2022/10/06 15:58:30;;;;;;;;;;;24.30;99.90;;;;;;4951673;29;19927;-68
2022/10/06 16:00:57;;;;;;;;;;;24.60;99.90;;;;;;4951624;29;20393;-69
2022/10/06 16:03:34;;;;;;;;;;;24.10;99.90;;;;;;4951074;29;19986;-69
2022/10/06 16:06:03;;;;;;;;;;;23.40;99.90;;;;;;4955942;28;19981;-67
2022/10/06 16:08:32;;;;;;;;;;;22.50;99.90;;;;;;4961389;28;19954;-69
2022/10/06 16:10:59;;;;;;;;;;;21.40;99.90;;;;;;4953840;28;19935;-68
2022/10/06 16:13:26;;;;;;;;;;;20.40;99.90;;;;;;4958714;28;20365;-69
2022/10/06 16:15:53;;;;;;;;;;;19.70;99.90;;;;;;4961961;28;20302;-68
2022/10/06 16:18:20;;;;;;;;;;;19.40;99.90;;;;;;4956095;28;19926;-68
2022/10/06 16:20:53;;;;;;;;;;;19.10;99.90;;;;;;4964666;28;20621;-68
2022/10/06 16:23:20;;;;;;;;;;;18.90;99.90;;;;;;4959401;28;19933;-69
2022/10/06 16:25:48;;;;;;;;;;;18.70;99.90;;;;;;4958489;28;20764;-68
2022/10/06 16:28:15;;;;;;;;;;;18.40;99.90;;;;;;4950915;28;19927;-68
2022/10/06 16:30:42;;;;;;;;;;;18.30;99.90;;;;;;4961560;28;19935;-68
2022/10/06 16:33:08;;;;;;;;;;;18.10;99.90;;;;;;4952510;28;20385;-69
2022/10/06 16:35:35;;;;;;;;;;;17.80;99.90;;;;;;4958208;28;19930;-69
2022/10/06 16:38:03;;;;;;;;;;;17.70;99.90;;;;;;4965233;28;19926;-68
2022/10/06 16:40:30;;;;;;;;;;;17.50;99.90;;;;;;4963345;28;19926;-68
2022/10/06 16:42:57;;;;;;;;;;;17.40;99.90;;;;;;4962040;28;20013;-68
2022/10/06 16:45:24;;;;;;;;;;;17.10;99.90;;;;;;4958699;28;19930;-68
2022/10/06 16:47:50;;;;;;;;;;;16.90;99.90;;;;;;4961100;28;20321;-68
2022/10/06 16:50:17;;;;;;;;;;;16.70;99.90;;;;;;4965648;28;19926;-68
2022/10/06 16:52:44;;;;;;;;;;;16.60;99.90;;;;;;4963617;28;19930;-68
2022/10/06 16:55:12;;;;;;;;;;;16.50;99.90;;;;;;4959777;28;20381;-68
2022/10/06 16:57:39;;;;;;;;;;;16.40;99.90;;;;;;4962693;28;19927;-67
2022/10/06 17:00:06;;;;;;;;;;;16.20;99.90;;;;;;4967823;28;19973;-68
2022/10/06 17:02:33;;;;;;;;;;;16.00;99.90;;;;;;4961053;28;20025;-68
2022/10/06 17:05:00;;;;;;;;;;;15.90;99.90;;;;;;4954697;28;19927;-68
2022/10/06 17:07:27;;;;;;;;;;;15.80;99.90;;;;;;4957861;28;19933;-68
2022/10/06 17:09:54;;;;;;;;;;;15.70;99.90;;;;;;4958981;28;19937;-68
2022/10/06 17:12:22;;;;;;;;;;;15.60;99.90;;;;;;4956103;28;19952;-67
2022/10/06 17:14:49;;;;;;;;;;;15.50;99.90;;;;;;4954247;29;20350;-68
2022/10/06 17:17:16;;;;;;;;;;;15.40;99.90;;;;;;4954426;29;19927;-70
2022/10/06 17:19:42;;;;;;;;;;;15.30;99.90;;;;;;4950604;29;19927;-69
2022/10/06 17:22:09;;;;;;;;;;;15.20;99.90;;;;;;4932935;29;19978;-68
2022/10/06 17:24:36;;;;;;;;;;;15.10;99.90;;;;;;4934652;29;19930;-69
2022/10/06 17:27:03;;;;;;;;;;;15.00;99.90;;;;;;4935239;29;19927;-68
2022/10/06 17:29:32;;;;;;;;;;;14.90;99.90;;;;;;4935169;29;19927;-69
2022/10/06 17:31:58;;;;;;;;;;;14.90;99.90;;;;;;4935193;29;20018;-69
2022/10/06 17:34:25;;;;;;;;;;;14.80;99.90;;;;;;4935071;29;19927;-68
2022/10/06 17:36:52;;;;;;;;;;;14.70;99.90;;;;;;4934974;29;19950;-68
2022/10/06 17:39:20;;;;;;;;;;;14.80;99.90;;;;;;4935031;29;19926;-75
2022/10/06 17:41:47;;;;;;;;;;;14.70;99.90;;;;;;4950394;29;19935;-68
2022/10/06 17:44:15;;;;;;;;;;;14.60;99.90;;;;;;4953489;29;20065;-68
2022/10/06 17:46:44;;;;;;;;;;;14.50;99.90;;;;;;4951072;28;19982;-68
2022/10/06 17:49:12;;;;;;;;;;;14.50;99.90;;;;;;4952830;29;19973;-68
2022/10/06 17:51:40;;;;;;;;;;;14.40;99.90;;;;;;4952257;29;19926;-68
2022/10/06 17:54:10;;;;;;;;;;;14.20;99.90;;;;;;4953502;29;19931;-67
2022/10/06 17:56:38;;;;;;;;;;;14.20;99.90;;;;;;4947279;29;19931;-67
2022/10/06 17:59:06;;;;;;;;;;;14.10;99.90;;;;;;4957177;28;20415;-67
2022/10/06 18:01:34;;;;;;;;;;;14.00;99.90;;;;;;4935921;29;19934;-68